createdAt,value
2019-05-09T00:00:04.157Z,13.50
2019-05-09T00:02:39.030Z,13.50
2019-05-09T00:05:08.621Z,13.50
2019-05-09T00:07:36.904Z,13.40
2019-05-09T00:10:07.618Z,13.50
2019-05-09T00:12:36.246Z,13.50
2019-05-09T00:15:04.642Z,13.50
2019-05-09T00:17:34.169Z,13.50
2019-05-09T00:20:09.488Z,13.50
2019-05-09T00:22:37.381Z,13.50
2019-05-09T00:25:04.903Z,13.50
2019-05-09T00:27:33.267Z,13.20
2019-05-09T00:30:03.729Z,13.50
2019-05-09T00:32:39.379Z,13.50
2019-05-09T00:35:33.840Z,13.50
2019-05-09T00:38:06.144Z,13.50
2019-05-09T00:40:34.194Z,13.50
2019-05-09T00:43:03.968Z,13.50
2019-05-09T00:45:57.637Z,13.50
2019-05-09T00:48:33.493Z,13.50
2019-05-09T00:51:00.445Z,13.50
2019-05-09T00:53:27.986Z,13.50
2019-05-09T00:55:55.570Z,13.50
2019-05-09T00:58:24.167Z,13.50
2019-05-09T01:00:53.306Z,13.50
2019-05-09T01:03:23.445Z,13.50
2019-05-09T01:05:51.018Z,13.40
2019-05-09T01:08:18.982Z,13.40
2019-05-09T01:10:46.579Z,13.40
2019-05-09T01:13:14.832Z,13.40
2019-05-09T01:15:44.555Z,13.40
2019-05-09T01:18:13.243Z,13.40
2019-05-09T01:20:41.082Z,13.40
2019-05-09T01:23:08.599Z,13.40
2019-05-09T01:25:36.848Z,13.40
2019-05-09T01:28:04.898Z,13.30
2019-05-09T01:30:33.647Z,13.30
2019-05-09T01:33:15.465Z,13.30
2019-05-09T01:35:43.475Z,13.30
2019-05-09T01:38:11.511Z,13.30
2019-05-09T01:40:39.184Z,13.30
2019-05-09T01:43:07.051Z,13.30
2019-05-09T01:45:34.553Z,13.30
2019-05-09T01:48:03.275Z,13.30
2019-05-09T01:50:33.890Z,13.30
2019-05-09T01:53:00.931Z,13.20
2019-05-09T01:55:46.929Z,13.20
2019-05-09T01:58:14.473Z,13.20
2019-05-09T02:00:43.569Z,13.20
2019-05-09T02:03:13.936Z,13.20
2019-05-09T02:05:43.485Z,13.20
2019-05-09T02:08:10.988Z,13.20
2019-05-09T02:10:38.658Z,13.20
2019-05-09T02:13:06.234Z,13.20
2019-05-09T02:15:55.900Z,13.20
2019-05-09T02:18:33.398Z,13.20
2019-05-09T02:21:01.255Z,13.20
2019-05-09T02:23:29.439Z,13.20
2019-05-09T02:25:57.146Z,13.20
2019-05-09T02:28:24.609Z,13.20
2019-05-09T02:30:55.032Z,13.20
2019-05-09T02:33:25.037Z,13.20
2019-05-09T02:35:57.351Z,13.20
2019-05-09T02:38:22.369Z,13.10
2019-05-09T02:40:50.069Z,13.10
2019-05-09T02:43:18.912Z,13.20
2019-05-09T02:45:59.425Z,13.10
2019-05-09T02:48:28.800Z,13.10
2019-05-09T02:50:55.668Z,13.10
2019-05-09T02:53:24.104Z,13.10
2019-05-09T02:55:51.660Z,13.10
2019-05-09T02:58:21.287Z,13.00
2019-05-09T03:00:59.833Z,13.10
2019-05-09T03:03:30.380Z,13.00
2019-05-09T03:05:59.695Z,13.00
2019-05-09T03:08:29.551Z,13.00
2019-05-09T03:10:59.028Z,13.20
2019-05-09T03:13:29.075Z,13.20
2019-05-09T03:16:00.562Z,13.00
2019-05-09T03:18:28.748Z,12.90
2019-05-09T03:21:12.963Z,12.70
2019-05-09T03:23:42.450Z,12.90
2019-05-09T03:26:12.496Z,12.90
2019-05-09T03:28:49.183Z,12.90
2019-05-09T03:31:19.672Z,12.80
2019-05-09T03:33:50.074Z,12.80
2019-05-09T03:36:18.108Z,12.80
2019-05-09T03:38:47.577Z,12.80
2019-05-09T03:41:17.619Z,12.80
2019-05-09T03:43:45.325Z,12.80
2019-05-09T03:46:20.093Z,12.80
2019-05-09T03:48:50.664Z,12.70
2019-05-09T03:51:18.694Z,12.70
2019-05-09T03:53:48.244Z,12.70
2019-05-09T03:56:19.085Z,12.70
2019-05-09T03:58:47.483Z,12.70
2019-05-09T04:01:17.533Z,12.70
2019-05-09T04:03:45.298Z,12.60
2019-05-09T04:06:12.865Z,12.60
2019-05-09T04:08:40.607Z,12.60
2019-05-09T04:11:08.864Z,12.60
2019-05-09T04:13:42.195Z,12.70
2019-05-09T04:16:12.759Z,12.60
2019-05-09T04:18:40.545Z,12.60
2019-05-09T04:21:09.035Z,12.60
2019-05-09T04:23:37.851Z,12.60
2019-05-09T04:26:12.579Z,12.60
2019-05-09T04:28:40.222Z,12.60
2019-05-09T04:31:08.306Z,12.60
2019-05-09T04:33:38.295Z,12.60
2019-05-09T04:36:08.333Z,12.60
2019-05-09T04:38:39.756Z,12.60
2019-05-09T04:41:07.511Z,12.60
2019-05-09T04:43:39.464Z,12.60
2019-05-09T04:46:13.006Z,12.60
2019-05-09T04:48:40.619Z,12.60
2019-05-09T04:51:08.788Z,12.60
2019-05-09T04:53:37.683Z,12.60
2019-05-09T04:56:23.445Z,12.70
2019-05-09T04:58:51.596Z,12.70
2019-05-09T05:01:42.233Z,12.60
2019-05-09T05:04:10.860Z,12.70
2019-05-09T05:06:40.570Z,12.70
2019-05-09T05:09:09.461Z,12.70
2019-05-09T05:11:38.609Z,12.70
2019-05-09T05:14:09.368Z,12.70
2019-05-09T05:16:39.311Z,12.70
2019-05-09T05:19:08.531Z,12.80
2019-05-09T05:21:37.804Z,12.80
2019-05-09T05:24:18.501Z,12.80
2019-05-09T05:26:48.458Z,12.80
2019-05-09T05:29:17.753Z,12.80
2019-05-09T05:31:47.609Z,12.80
2019-05-09T05:34:40.549Z,12.90
2019-05-09T05:37:08.365Z,12.90
2019-05-09T05:39:37.537Z,12.90
2019-05-09T05:42:08.101Z,12.90
2019-05-09T05:44:38.367Z,12.90
2019-05-09T05:47:27.248Z,12.90
2019-05-09T05:49:57.640Z,12.90
2019-05-09T05:52:27.697Z,12.90
2019-05-09T05:54:55.285Z,12.90
2019-05-09T05:57:23.435Z,12.90
2019-05-09T05:59:51.278Z,13.00
2019-05-09T06:02:19.520Z,12.90
2019-05-09T06:04:48.615Z,13.00
2019-05-09T06:07:18.469Z,13.00
2019-05-09T06:09:48.205Z,13.00
2019-05-09T06:12:18.317Z,12.90
2019-05-09T06:14:47.984Z,13.00
2019-05-09T06:17:18.216Z,13.00
2019-05-09T06:19:48.207Z,13.00
2019-05-09T06:22:18.339Z,13.00
2019-05-09T06:24:47.840Z,13.00
2019-05-09T06:27:18.097Z,13.00
2019-05-09T06:29:47.703Z,13.00
2019-05-09T06:32:18.652Z,13.00
2019-05-09T06:34:47.760Z,13.00
2019-05-09T06:37:18.398Z,13.00
2019-05-09T06:39:48.478Z,13.10
2019-05-09T06:42:18.106Z,13.00
2019-05-09T06:44:58.452Z,13.10
2019-05-09T06:47:29.764Z,13.10
2019-05-09T06:49:59.480Z,13.10
2019-05-09T06:52:28.313Z,13.10
2019-05-09T06:54:58.285Z,13.10
2019-05-09T06:57:28.158Z,13.10
2019-05-09T06:59:57.909Z,13.10
2019-05-09T07:02:31.664Z,13.20
2019-05-09T07:05:09.324Z,13.10
2019-05-09T07:08:31.457Z,13.20
2019-05-09T07:10:59.187Z,13.20
2019-05-09T07:13:29.462Z,13.20
2019-05-09T07:15:58.491Z,13.20
2019-05-09T07:18:27.693Z,13.20
2019-05-09T07:20:57.666Z,13.20
2019-05-09T07:23:25.403Z,13.30
2019-05-09T07:26:10.994Z,13.30
2019-05-09T07:28:39.638Z,13.30
2019-05-09T07:31:17.766Z,13.30
2019-05-09T07:33:52.634Z,13.40
2019-05-09T07:36:21.839Z,13.40
2019-05-09T07:38:58.084Z,13.40
2019-05-09T07:41:25.067Z,13.40
2019-05-09T07:43:52.997Z,13.40
2019-05-09T07:46:28.545Z,13.40
2019-05-09T07:48:57.785Z,13.40
2019-05-09T07:51:27.456Z,13.40
2019-05-09T07:53:55.740Z,13.50
2019-05-09T07:56:24.142Z,13.50
2019-05-09T07:58:52.612Z,13.50
2019-05-09T08:01:21.164Z,13.50
2019-05-09T08:03:49.170Z,13.60
2019-05-09T08:06:18.385Z,13.60
2019-05-09T08:08:47.642Z,13.60
2019-05-09T08:11:17.826Z,13.60
2019-05-09T08:13:48.400Z,13.70
2019-05-09T08:16:15.288Z,13.70
2019-05-09T08:18:43.264Z,13.70
2019-05-09T08:21:10.886Z,13.70
2019-05-09T08:23:38.783Z,13.70
2019-05-09T08:26:12.312Z,13.80
2019-05-09T08:28:42.089Z,13.80
2019-05-09T08:31:10.009Z,13.80
2019-05-09T08:33:38.369Z,13.90
2019-05-09T08:36:08.690Z,13.90
2019-05-09T08:38:38.787Z,13.90
2019-05-09T08:41:09.075Z,14.00
2019-05-09T08:43:38.243Z,14.00
2019-05-09T08:46:07.957Z,14.00
2019-05-09T08:48:39.034Z,14.00
2019-05-09T08:54:30.470Z,14.00
2019-05-09T08:56:59.968Z,14.10
2019-05-09T08:59:28.066Z,14.10
2019-05-09T09:02:12.365Z,14.10
2019-05-09T09:04:25.821Z,14.10
2019-05-09T09:06:53.626Z,14.10
2019-05-09T09:09:21.326Z,14.20
2019-05-09T09:11:50.302Z,14.20
2019-05-09T09:14:18.543Z,14.30
2019-05-09T09:16:47.955Z,14.30
2019-05-09T09:19:17.939Z,14.30
2019-05-09T09:21:47.628Z,14.40
2019-05-09T09:24:17.592Z,14.40
2019-05-09T09:26:45.382Z,14.40
2019-05-09T09:29:13.389Z,14.50
2019-05-09T09:31:41.283Z,14.50
2019-05-09T09:34:08.956Z,14.50
2019-05-09T09:36:38.988Z,14.50
2019-05-09T09:39:07.999Z,14.50
2019-05-09T09:41:38.698Z,14.60
2019-05-09T09:44:08.555Z,14.60
2019-05-09T09:46:37.394Z,14.60
2019-05-09T09:49:07.714Z,14.60
2019-05-09T09:51:38.030Z,14.60
2019-05-09T09:54:08.849Z,14.60
2019-05-09T09:56:38.603Z,14.60
2019-05-09T09:59:16.158Z,14.70
2019-05-09T10:01:44.784Z,14.70
2019-05-09T10:04:20.743Z,14.70
2019-05-09T10:06:43.875Z,14.70
2019-05-09T10:09:11.472Z,14.80
2019-05-09T10:11:38.985Z,14.80
2019-05-09T10:14:08.919Z,14.80
2019-05-09T10:16:47.755Z,14.80
2019-05-09T10:19:34.134Z,14.90
2019-05-09T10:22:03.126Z,14.90
2019-05-09T10:24:31.603Z,15.00
2019-05-09T10:27:08.858Z,15.00
2019-05-09T10:29:38.552Z,15.00
2019-05-09T10:32:09.027Z,15.00
2019-05-09T10:34:37.801Z,15.10
2019-05-09T10:37:07.735Z,15.10
2019-05-09T10:39:35.313Z,15.10
2019-05-09T10:42:08.713Z,15.10
2019-05-09T10:44:43.219Z,15.10
2019-05-09T10:47:19.792Z,15.20
2019-05-09T10:49:48.833Z,15.20
2019-05-09T10:52:18.206Z,15.20
2019-05-09T10:54:45.761Z,15.20
2019-05-09T10:57:13.267Z,15.20
2019-05-09T10:59:41.067Z,15.20
2019-05-09T11:02:09.641Z,15.20
2019-05-09T11:04:39.940Z,15.20
2019-05-09T11:07:08.209Z,15.30
2019-05-09T11:09:35.954Z,15.30
2019-05-09T11:12:03.885Z,15.30
2019-05-09T11:14:36.882Z,15.30
2019-05-09T11:17:09.939Z,15.30
2019-05-09T11:19:30.829Z,15.40
2019-05-09T11:22:01.927Z,15.40
2019-05-09T11:24:41.697Z,15.40
2019-05-09T11:26:59.607Z,15.40
2019-05-09T11:29:28.156Z,15.50
2019-05-09T11:31:58.736Z,15.50
2019-05-09T11:34:26.017Z,15.50
2019-05-09T11:36:54.035Z,15.50
2019-05-09T11:39:35.730Z,15.60
2019-05-09T11:41:52.073Z,15.60
2019-05-09T11:44:19.582Z,15.60
2019-05-09T11:46:47.763Z,15.70
2019-05-09T11:49:17.987Z,15.70
2019-05-09T11:51:48.050Z,15.70
2019-05-09T11:54:17.203Z,15.80
2019-05-09T11:56:48.181Z,15.80
2019-05-09T11:59:18.256Z,15.80
2019-05-09T12:01:48.192Z,15.90
2019-05-09T12:04:18.660Z,15.90
2019-05-09T12:06:49.087Z,15.90
2019-05-09T12:09:16.557Z,15.90
2019-05-09T12:11:45.070Z,16.00
2019-05-09T12:14:12.658Z,16.00
2019-05-09T12:16:41.108Z,16.00
2019-05-09T12:19:08.652Z,16.10
2019-05-09T12:21:44.985Z,16.10
2019-05-09T12:24:09.072Z,16.10
2019-05-09T12:26:39.068Z,16.20
2019-05-09T12:29:08.713Z,16.10
2019-05-09T12:31:38.711Z,16.20
2019-05-09T12:34:08.806Z,16.20
2019-05-09T12:36:35.802Z,16.30
2019-05-09T12:39:08.473Z,16.20
2019-05-09T12:41:38.253Z,16.40
2019-05-09T12:44:05.537Z,16.30
2019-05-09T12:46:33.097Z,16.30
2019-05-09T12:49:00.613Z,16.40
2019-05-09T12:51:28.528Z,16.60
2019-05-09T12:53:57.815Z,16.50
2019-05-09T12:56:28.528Z,16.50
2019-05-09T12:58:57.859Z,16.60
2019-05-09T13:01:25.801Z,16.60
2019-05-09T13:03:54.416Z,16.60
2019-05-09T13:06:23.890Z,16.70
2019-05-09T13:08:51.931Z,16.70
2019-05-09T13:11:20.753Z,16.80
2019-05-09T13:13:48.725Z,16.90
2019-05-09T13:16:42.589Z,16.90
2019-05-09T13:19:02.833Z,17.00
2019-05-09T13:21:32.751Z,17.00
2019-05-09T13:24:01.336Z,17.00
2019-05-09T13:26:29.485Z,16.90
2019-05-09T13:28:58.924Z,16.90
2019-05-09T13:31:29.430Z,16.80
2019-05-09T13:33:58.358Z,16.80
2019-05-09T13:36:28.446Z,16.70
2019-05-09T13:39:03.442Z,16.70
2019-05-09T13:41:25.497Z,16.70
2019-05-09T13:43:58.131Z,16.60
2019-05-09T13:46:24.218Z,16.60
2019-05-09T13:49:09.872Z,16.60
2019-05-09T13:51:22.634Z,16.60
2019-05-09T13:53:50.984Z,16.50
2019-05-09T13:56:19.366Z,16.50
2019-05-09T13:58:48.791Z,16.50
2019-05-09T14:01:17.561Z,16.50
2019-05-09T14:03:48.778Z,16.40
2019-05-09T14:06:15.638Z,16.40
2019-05-09T14:08:43.813Z,16.40
2019-05-09T14:11:11.972Z,16.40
2019-05-09T14:13:39.837Z,16.40
2019-05-09T14:16:16.926Z,16.40
2019-05-09T14:18:38.562Z,16.40
2019-05-09T14:21:07.705Z,16.40
2019-05-09T14:23:39.648Z,16.40
2019-05-09T14:26:05.044Z,16.40
2019-05-09T14:28:33.089Z,16.40
2019-05-09T14:31:01.130Z,16.50
2019-05-09T14:33:29.655Z,16.50
2019-05-09T14:35:59.454Z,16.50
2019-05-09T14:38:27.111Z,16.60
2019-05-09T14:40:55.094Z,16.60
2019-05-09T14:43:23.412Z,16.70
2019-05-09T14:45:52.099Z,16.80
2019-05-09T14:48:20.029Z,16.90
2019-05-09T14:50:49.588Z,16.90
2019-05-09T14:53:18.237Z,17.00
2019-05-09T14:55:47.584Z,17.10
2019-05-09T14:58:17.808Z,17.30
2019-05-09T15:00:47.998Z,17.30
2019-05-09T15:03:15.291Z,17.40
2019-05-09T15:05:43.051Z,17.40
2019-05-09T15:08:11.042Z,17.50
2019-05-09T15:10:38.749Z,17.50
2019-05-09T15:13:07.837Z,17.60
2019-05-09T15:15:38.058Z,17.80
2019-05-09T15:18:07.914Z,17.90
2019-05-09T15:20:37.942Z,18.10
2019-05-09T15:23:05.722Z,18.30
2019-05-09T15:25:35.683Z,18.60
2019-05-09T15:28:03.394Z,18.90
2019-05-09T15:30:31.423Z,19.20
2019-05-09T15:32:59.121Z,19.50
2019-05-09T15:35:28.151Z,19.90
2019-05-09T15:37:58.804Z,20.20
2019-05-09T15:40:28.211Z,20.30
2019-05-09T15:42:58.581Z,20.20
2019-05-09T15:45:28.559Z,20.10
2019-05-09T15:47:58.351Z,20.10
2019-05-09T15:50:27.836Z,20.20
2019-05-09T15:52:57.993Z,20.30
2019-05-09T15:55:28.166Z,20.60
2019-05-09T15:57:57.663Z,20.80
2019-05-09T16:00:28.358Z,21.10
2019-05-09T16:02:58.754Z,21.30
2019-05-09T16:05:26.190Z,21.60
2019-05-09T16:07:54.475Z,21.70
2019-05-09T16:10:22.209Z,21.50
2019-05-09T16:12:51.249Z,21.30
2019-05-09T16:15:18.900Z,21.10
2019-05-09T16:17:48.383Z,20.90
2019-05-09T16:20:22.935Z,20.60
2019-05-09T16:22:48.239Z,20.40
2019-05-09T16:25:18.206Z,20.10
2019-05-09T16:27:48.491Z,19.80
2019-05-09T16:30:17.410Z,19.60
2019-05-09T16:32:47.874Z,19.60
2019-05-09T16:35:18.017Z,19.20
2019-05-09T16:38:00.892Z,19.10
2019-05-09T16:40:14.783Z,18.90
2019-05-09T16:42:42.916Z,18.80
2019-05-09T16:45:11.502Z,18.60
2019-05-09T16:47:39.858Z,18.60
2019-05-09T16:50:12.061Z,18.40
2019-05-09T16:52:43.737Z,18.40
2019-05-09T16:55:14.734Z,18.30
2019-05-09T16:57:43.444Z,18.20
2019-05-09T17:00:13.962Z,18.10
2019-05-09T17:02:41.525Z,18.10
2019-05-09T17:05:09.170Z,18.00
2019-05-09T17:07:38.425Z,18.00
2019-05-09T17:10:08.351Z,17.90
2019-05-09T17:12:37.341Z,17.90
2019-05-09T17:15:08.566Z,17.90
2019-05-09T17:17:35.796Z,17.80
2019-05-09T17:20:04.288Z,17.80
2019-05-09T17:22:50.186Z,17.70
2019-05-09T17:25:18.691Z,17.60
2019-05-09T17:27:48.310Z,17.60
2019-05-09T17:30:18.747Z,17.20
2019-05-09T17:32:47.806Z,17.60
2019-05-09T17:35:18.488Z,17.60
2019-05-09T17:37:47.986Z,17.60
2019-05-09T17:40:16.869Z,17.60
2019-05-09T17:42:45.672Z,17.60
2019-05-09T17:45:13.865Z,17.50
2019-05-09T17:47:42.853Z,17.60
2019-05-09T17:50:10.982Z,17.50
2019-05-09T17:52:39.202Z,17.50
2019-05-09T17:55:07.511Z,17.50
2019-05-09T17:57:38.599Z,17.40
2019-05-09T18:00:07.979Z,17.40
2019-05-09T18:02:35.034Z,17.40
2019-05-09T18:05:02.783Z,17.40
2019-05-09T18:07:30.999Z,17.40
2019-05-09T18:09:59.468Z,17.40
2019-05-09T18:12:28.002Z,17.30
2019-05-09T18:14:56.348Z,17.30
2019-05-09T18:17:24.005Z,17.30
2019-05-09T18:19:52.383Z,17.30
2019-05-09T18:22:19.999Z,17.30
2019-05-09T18:24:48.363Z,17.20
2019-05-09T18:27:17.970Z,17.10
2019-05-09T18:29:47.422Z,16.90
2019-05-09T18:32:40.983Z,16.90
2019-05-09T18:35:12.866Z,16.80
2019-05-09T18:37:49.067Z,16.60
2019-05-09T18:40:17.967Z,16.60
2019-05-09T18:42:47.582Z,16.40
2019-05-09T18:45:17.949Z,16.30
2019-05-09T18:47:48.211Z,16.30
2019-05-09T18:50:16.548Z,16.10
2019-05-09T18:52:44.655Z,16.00
2019-05-09T18:55:13.103Z,16.10
2019-05-09T18:57:41.273Z,16.00
2019-05-09T19:00:10.734Z,15.90
2019-05-09T19:02:40.277Z,15.90
2019-05-09T19:05:08.559Z,15.80
2019-05-09T19:07:37.350Z,15.80
2019-05-09T19:10:06.322Z,15.80
2019-05-09T19:12:33.804Z,15.80
2019-05-09T19:15:02.897Z,15.70
2019-05-09T19:17:50.612Z,15.70
2019-05-09T19:20:53.205Z,15.70
2019-05-09T19:23:21.107Z,15.70
2019-05-09T19:25:48.612Z,15.70
2019-05-09T19:28:16.546Z,15.60
2019-05-09T19:30:44.396Z,15.60
2019-05-09T19:33:12.438Z,15.60
2019-05-09T19:35:40.024Z,15.60
2019-05-09T19:38:07.925Z,15.60
2019-05-09T19:40:35.439Z,15.60
2019-05-09T19:43:03.270Z,15.60
2019-05-09T19:45:31.160Z,15.60
2019-05-09T19:47:59.025Z,15.50
2019-05-09T19:50:27.232Z,15.60
2019-05-09T19:52:55.405Z,15.60
2019-05-09T19:55:23.239Z,15.60
2019-05-09T19:57:50.667Z,15.50
2019-05-09T20:00:18.984Z,15.50
2019-05-09T20:02:47.179Z,15.50
2019-05-09T20:05:14.783Z,15.50
2019-05-09T20:07:42.585Z,15.50
2019-05-09T20:10:28.646Z,15.50
2019-05-09T20:13:11.751Z,15.50
2019-05-09T20:15:39.251Z,15.50
2019-05-09T20:18:07.171Z,15.50
2019-05-09T20:20:34.854Z,15.40
2019-05-09T20:23:02.730Z,15.50
2019-05-09T20:25:30.144Z,15.50
2019-05-09T20:27:57.938Z,15.40
2019-05-09T20:30:25.477Z,15.40
2019-05-09T20:32:53.292Z,15.40
2019-05-09T20:35:20.628Z,15.40
2019-05-09T20:37:48.309Z,15.40
2019-05-09T20:40:16.112Z,15.40
2019-05-09T20:42:44.151Z,15.40
2019-05-09T20:45:11.914Z,15.20
2019-05-09T20:47:39.976Z,15.40
2019-05-09T20:50:08.041Z,15.40
2019-05-09T20:52:35.887Z,15.40
2019-05-09T20:55:03.860Z,15.40
2019-05-09T20:57:31.621Z,15.40
2019-05-09T20:59:59.018Z,15.40
2019-05-09T21:02:26.901Z,15.40
2019-05-09T21:04:57.089Z,15.40
2019-05-09T21:07:24.788Z,15.40
2019-05-09T21:09:52.178Z,15.40
2019-05-09T21:12:20.425Z,15.40
2019-05-09T21:14:48.000Z,15.40
2019-05-09T21:17:15.875Z,15.40
2019-05-09T21:19:43.430Z,15.40
2019-05-09T21:22:11.488Z,15.40
2019-05-09T21:24:39.303Z,15.40
2019-05-09T21:27:06.958Z,15.30
2019-05-09T21:29:34.270Z,15.30
2019-05-09T21:32:01.860Z,15.30
2019-05-09T21:34:29.182Z,15.30
2019-05-09T21:36:57.220Z,15.30
2019-05-09T21:39:24.994Z,15.30
2019-05-09T21:41:52.757Z,15.30
2019-05-09T21:44:20.537Z,15.20
2019-05-09T21:46:48.590Z,15.20
2019-05-09T21:49:16.485Z,15.20
2019-05-09T21:51:44.155Z,15.20
2019-05-09T21:54:11.530Z,15.20
2019-05-09T21:56:39.176Z,15.20
2019-05-09T21:59:06.459Z,15.20
2019-05-09T22:01:34.364Z,15.20
2019-05-09T22:04:02.117Z,15.20
2019-05-09T22:06:30.393Z,15.20
2019-05-09T22:08:58.224Z,15.20
2019-05-09T22:11:25.646Z,15.20
2019-05-09T22:13:53.248Z,15.10
2019-05-09T22:16:20.855Z,15.10
2019-05-09T22:18:48.177Z,15.10
2019-05-09T22:21:21.585Z,15.10
2019-05-09T22:23:56.494Z,15.10
2019-05-09T22:26:19.814Z,15.10
2019-05-09T22:28:47.331Z,15.10
2019-05-09T22:31:15.359Z,15.10
2019-05-09T22:33:43.003Z,15.10
2019-05-09T22:36:10.929Z,15.10
2019-05-09T22:38:39.041Z,15.10
2019-05-09T22:41:06.848Z,15.00
2019-05-09T22:43:34.105Z,15.10
2019-05-09T22:46:01.482Z,15.00
2019-05-09T22:48:29.161Z,15.00
2019-05-09T22:50:56.801Z,15.00
2019-05-09T22:53:24.367Z,15.00
2019-05-09T22:55:51.853Z,15.00
2019-05-09T22:58:19.313Z,15.00
2019-05-09T23:00:47.331Z,15.00
2019-05-09T23:03:15.056Z,15.00
2019-05-09T23:05:42.732Z,14.90
2019-05-09T23:08:10.299Z,14.90
2019-05-09T23:10:37.914Z,14.90
2019-05-09T23:13:05.590Z,14.90
2019-05-09T23:15:42.260Z,14.90
2019-05-09T23:18:10.067Z,14.90
2019-05-09T23:21:06.016Z,14.90
2019-05-09T23:23:37.361Z,14.80
2019-05-09T23:26:04.881Z,14.80
2019-05-09T23:28:32.566Z,14.80
2019-05-09T23:31:03.343Z,14.80
2019-05-09T23:33:34.638Z,14.80
2019-05-09T23:36:02.105Z,14.80
2019-05-09T23:38:30.082Z,14.70
2019-05-09T23:40:58.873Z,14.70
2019-05-09T23:43:27.233Z,14.70
2019-05-09T23:45:55.000Z,14.70
2019-05-09T23:48:22.606Z,14.70
2019-05-09T23:50:50.145Z,14.70
2019-05-09T23:53:30.797Z,14.80
2019-05-09T23:56:16.586Z,14.70
2019-05-09T23:59:02.200Z,14.70
